Time;durP1;ratioP1;P1;durP2;ratioP2;P2;SDS_P1;SDS_P2;PMS_P1;PMS_P2;Temp;Humidity;BMP_temperature;BMP_pressure;BME280_temperature;BME280_humidity;BME280_pressure;Samples;Min_cycle;Max_cycle;Signal;HPM_P1;HPM_P2
2022/08/26 00:00:45;;;;;;;12.13;7.07;;;23.10;73.00;;;;;;6242543;23;20035;-68
2022/08/26 00:03:11;;;;;;;10.73;6.25;;;23.10;73.00;;;;;;6240290;23;20376;-67
2022/08/26 00:05:38;;;;;;;8.80;6.35;;;23.10;72.90;;;;;;6241727;23;20011;-67
2022/08/26 00:08:04;;;;;;;9.68;6.95;;;23.10;72.90;;;;;;6241376;23;20027;-67
2022/08/26 00:10:29;;;;;;;10.25;5.93;;;23.10;73.20;;;;;;6241781;23;20007;-67
2022/08/26 00:12:55;;;;;;;10.00;6.28;;;23.10;73.10;;;;;;6241916;23;20003;-66
2022/08/26 00:15:21;;;;;;;8.45;5.57;;;23.10;73.20;;;;;;6241559;23;20067;-67
2022/08/26 00:17:48;;;;;;;9.75;5.72;;;23.10;73.20;;;;;;6241963;23;20000;-67
2022/08/26 00:20:17;;;;;;;8.13;5.68;;;23.10;73.20;;;;;;6241642;23;20067;-67
2022/08/26 00:22:42;;;;;;;12.27;7.30;;;23.00;73.40;;;;;;6242094;23;20005;-69
2022/08/26 00:25:09;;;;;;;8.35;5.18;;;23.00;73.90;;;;;;6241567;23;20081;-68
2022/08/26 00:27:36;;;;;;;9.32;5.25;;;23.00;73.80;;;;;;6241435;23;20095;-67
2022/08/26 00:30:06;;;;;;;7.72;5.15;;;22.90;73.80;;;;;;6242051;23;20001;-67
2022/08/26 00:32:32;;;;;;;7.70;4.13;;;22.90;74.00;;;;;;6241808;23;20373;-67
2022/08/26 00:34:57;;;;;;;8.35;5.30;;;23.00;73.80;;;;;;6241954;23;20077;-66
2022/08/26 00:37:23;;;;;;;10.02;4.88;;;22.90;74.00;;;;;;6241271;23;20026;-67
2022/08/26 00:39:48;;;;;;;6.88;4.60;;;22.90;74.00;;;;;;6241728;23;20036;-66
2022/08/26 00:42:14;;;;;;;9.05;4.90;;;22.90;73.90;;;;;;6241785;23;20357;-67
2022/08/26 00:44:40;;;;;;;5.35;3.58;;;22.90;74.10;;;;;;6241533;23;20027;-66
2022/08/26 00:47:12;;;;;;;5.03;4.18;;;22.90;74.10;;;;;;6241538;23;20001;-67
2022/08/26 00:49:46;;;;;;;7.70;4.10;;;22.90;74.00;;;;;;6241526;23;20053;-67
2022/08/26 00:52:17;;;;;;;6.00;3.95;;;22.80;74.20;;;;;;6241722;23;20004;-67
2022/08/26 00:54:55;;;;;;;;;;;22.80;74.20;;;;;;6242525;23;20134;-66
2022/08/26 00:57:21;;;;;;;4.13;3.22;;;22.80;74.00;;;;;;6241744;22;19899;-66
2022/08/26 00:59:53;;;;;;;8.20;3.78;;;22.70;74.30;;;;;;6242139;23;20000;-66
2022/08/26 01:02:19;;;;;;;5.45;3.35;;;22.70;74.40;;;;;;6241512;23;20028;-67
2022/08/26 01:04:46;;;;;;;5.13;3.30;;;22.70;74.50;;;;;;6243394;23;20008;-66
2022/08/26 01:07:11;;;;;;;4.25;2.75;;;22.70;74.40;;;;;;6243317;23;20004;-66
2022/08/26 01:09:37;;;;;;;4.88;3.08;;;22.70;74.20;;;;;;6243978;23;20037;-67
2022/08/26 01:12:03;;;;;;;6.80;3.60;;;22.70;74.20;;;;;;6243500;23;20000;-66
2022/08/26 01:14:33;;;;;;;7.57;3.45;;;22.70;74.40;;;;;;6243069;23;20457;-67
2022/08/26 01:17:02;;;;;;;4.05;2.60;;;22.70;74.40;;;;;;6243312;23;20000;-66
2022/08/26 01:19:33;;;;;;;5.63;2.70;;;22.70;74.40;;;;;;6243097;23;20067;-66
2022/08/26 01:22:05;;;;;;;5.38;3.47;;;22.70;74.50;;;;;;6243736;23;20504;-66
2022/08/26 01:24:30;;;;;;;4.50;2.38;;;22.60;74.70;;;;;;6243608;23;20083;-65
2022/08/26 01:27:00;;;;;;;3.63;2.50;;;22.60;74.40;;;;;;6242955;23;20416;-65
2022/08/26 01:29:28;;;;;;;5.82;2.90;;;22.70;74.50;;;;;;6243625;23;20353;-66
2022/08/26 01:31:55;;;;;;;5.00;2.50;;;22.60;74.50;;;;;;6243239;23;19996;-66
2022/08/26 01:34:26;;;;;;;4.55;2.50;;;22.60;74.60;;;;;;6243818;23;20421;-67
2022/08/26 01:36:57;;;;;;;4.88;2.85;;;22.60;74.60;;;;;;6242917;23;20000;-66
2022/08/26 01:39:23;;;;;;;6.07;2.67;;;22.60;74.70;;;;;;6243606;23;20319;-66
2022/08/26 01:41:51;;;;;;;5.50;2.70;;;22.60;74.70;;;;;;6243235;23;20004;-67
2022/08/26 01:44:21;;;;;;;6.07;2.72;;;22.60;74.80;;;;;;6243641;23;20011;-67
2022/08/26 01:46:49;;;;;;;4.07;2.53;;;22.60;74.80;;;;;;6243666;22;20074;-68
2022/08/26 01:49:16;;;;;;;4.88;2.75;;;22.50;74.70;;;;;;6242041;23;20008;-67
2022/08/26 01:51:43;;;;;;;4.10;2.65;;;22.50;74.70;;;;;;6243871;23;19997;-68
2022/08/26 01:54:10;;;;;;;5.22;2.70;;;22.50;74.80;;;;;;6243515;23;20023;-67
2022/08/26 01:56:36;;;;;;;5.32;2.50;;;22.50;75.00;;;;;;6243251;23;20000;-67
2022/08/26 01:59:05;;;;;;;4.65;2.55;;;22.50;74.90;;;;;;6243759;23;20004;-67
2022/08/26 02:01:31;;;;;;;4.07;2.30;;;22.40;75.10;;;;;;6243309;23;20007;-67
2022/08/26 02:04:16;;;;;;;4.32;2.40;;;22.40;74.90;;;;;;6243642;23;20059;-66
2022/08/26 02:06:43;;;;;;;2.88;1.90;;;22.40;75.00;;;;;;6242465;23;20079;-66
2022/08/26 02:09:09;;;;;;;4.32;1.85;;;22.40;74.80;;;;;;6243372;23;20023;-67
2022/08/26 02:11:35;;;;;;;6.90;2.40;;;22.50;74.70;;;;;;6243147;23;20004;-66
2022/08/26 02:14:10;;;;;;;4.45;1.98;;;22.40;74.70;;;;;;6243297;23;20036;-69
2022/08/26 02:16:39;;;;;;;5.43;2.08;;;22.40;74.70;;;;;;6243079;23;19996;-66
2022/08/26 02:19:08;;;;;;;5.72;2.10;;;22.40;74.90;;;;;;6242979;23;20003;-67
2022/08/26 02:21:34;;;;;;;5.60;2.40;;;22.40;74.90;;;;;;6243173;23;20568;-67
2022/08/26 02:24:26;;;;;;;5.13;2.03;;;22.40;75.00;;;;;;6242771;23;20001;-67
2022/08/26 02:26:51;;;;;;;;;;;22.30;75.00;;;;;;6243239;23;20436;-68
2022/08/26 02:29:49;;;;;;;5.47;2.10;;;22.30;74.90;;;;;;6241313;23;19904;-68
2022/08/26 02:32:14;;;;;;;4.38;2.13;;;22.30;75.00;;;;;;6225395;22;20008;-67
2022/08/26 02:34:40;;;;;;;6.03;2.00;;;22.30;75.10;;;;;;6243402;23;20514;-68
2022/08/26 02:37:08;;;;;;;3.38;1.73;;;22.30;75.20;;;;;;6241313;23;20004;-68
2022/08/26 02:39:36;;;;;;;5.53;2.00;;;22.30;75.20;;;;;;6243492;22;20007;-66
2022/08/26 02:42:04;;;;;;;6.15;2.83;;;22.20;75.40;;;;;;6242551;23;20000;-67
2022/08/26 02:44:30;;;;;;;2.97;1.98;;;22.20;75.50;;;;;;6242596;23;20310;-67
2022/08/26 02:46:56;;;;;;;5.93;2.15;;;22.20;75.50;;;;;;6241929;22;20011;-68
2022/08/26 02:49:23;;;;;;;4.05;1.95;;;22.20;75.50;;;;;;6242810;23;20008;-67
2022/08/26 02:51:49;;;;;;;4.43;1.90;;;22.20;75.60;;;;;;6242960;23;19996;-68
2022/08/26 02:54:15;;;;;;;3.10;1.88;;;22.20;75.50;;;;;;6242535;23;20541;-68
2022/08/26 02:56:42;;;;;;;3.22;1.88;;;22.20;75.50;;;;;;6241687;23;20007;-69
2022/08/26 02:59:07;;;;;;;3.55;1.77;;;22.20;75.60;;;;;;6241983;23;20011;-68
2022/08/26 03:01:35;;;;;;;3.33;1.60;;;22.20;75.60;;;;;;6242996;23;20367;-67
2022/08/26 03:04:02;;;;;;;3.13;1.85;;;22.20;75.50;;;;;;6242827;23;20038;-67
2022/08/26 03:06:28;;;;;;;3.25;1.70;;;22.20;75.60;;;;;;6242659;23;20007;-68
2022/08/26 03:08:54;;;;;;;2.58;1.58;;;22.20;75.60;;;;;;6243277;23;20000;-69
2022/08/26 03:11:21;;;;;;;3.03;1.80;;;22.20;75.90;;;;;;6242347;23;19996;-68
2022/08/26 03:13:46;;;;;;;3.05;1.73;;;22.20;75.90;;;;;;6242575;23;20345;-67
2022/08/26 03:16:12;;;;;;;3.05;1.65;;;22.10;75.80;;;;;;6242149;23;20000;-69
2022/08/26 03:18:38;;;;;;;4.07;1.73;;;22.10;75.80;;;;;;6242311;23;20459;-68
2022/08/26 03:21:09;;;;;;;3.75;1.70;;;22.20;75.80;;;;;;6240889;23;20360;-68
2022/08/26 03:23:37;;;;;;;4.85;1.73;;;22.20;75.90;;;;;;6242409;23;20441;-68
2022/08/26 03:26:04;;;;;;;2.60;1.50;;;22.10;75.90;;;;;;6242294;23;20011;-69
2022/08/26 03:28:30;;;;;;;7.35;1.90;;;22.20;76.10;;;;;;6211900;23;20009;-69
2022/08/26 03:30:56;;;;;;;4.22;1.60;;;22.10;76.20;;;;;;6212198;23;19997;-66
2022/08/26 03:33:23;;;;;;;3.53;1.65;;;22.10;76.20;;;;;;6212272;23;20450;-68
2022/08/26 03:35:50;;;;;;;2.22;1.38;;;22.10;76.20;;;;;;6211923;23;20001;-68
2022/08/26 03:38:15;;;;;;;3.33;1.60;;;22.10;76.10;;;;;;6212414;23;20404;-68
2022/08/26 03:40:42;;;;;;;4.68;1.40;;;22.10;76.10;;;;;;6212054;23;20062;-68
2022/08/26 03:43:10;;;;;;;3.88;1.55;;;22.10;76.10;;;;;;6212221;23;20051;-69
2022/08/26 03:45:36;;;;;;;3.33;1.30;;;22.10;76.10;;;;;;6211873;23;20027;-68
2022/08/26 03:48:02;;;;;;;4.60;1.60;;;22.10;76.00;;;;;;6211984;23;20357;-67
2022/08/26 03:50:28;;;;;;;4.03;1.38;;;22.10;76.10;;;;;;6212546;23;20429;-67
2022/08/26 03:52:55;;;;;;;4.38;1.40;;;22.10;76.10;;;;;;6212199;23;19997;-68
2022/08/26 03:55:23;;;;;;;4.38;1.58;;;22.10;76.70;;;;;;6211768;23;20001;-68
2022/08/26 03:57:49;;;;;;;2.33;1.10;;;22.20;76.00;;;;;;6211589;23;20011;-65
2022/08/26 04:00:16;;;;;;;3.28;1.30;;;22.10;75.80;;;;;;6211956;23;20043;-66
2022/08/26 04:02:44;;;;;;;3.20;1.27;;;22.10;75.80;;;;;;6211689;23;20005;-67
2022/08/26 04:05:12;;;;;;;2.65;1.17;;;22.20;75.80;;;;;;6211530;23;20005;-66
2022/08/26 04:07:38;;;;;;;3.13;1.13;;;22.10;75.80;;;;;;6212002;23;20062;-66
2022/08/26 04:10:05;;;;;;;4.05;1.77;;;22.10;75.80;;;;;;6211803;23;19997;-66
2022/08/26 04:12:30;;;;;;;4.10;1.30;;;22.10;75.90;;;;;;6212093;23;19997;-66
2022/08/26 04:14:56;;;;;;;3.70;1.20;;;22.20;75.90;;;;;;6211907;23;20038;-69
2022/08/26 04:17:24;;;;;;;4.45;1.38;;;22.10;76.40;;;;;;6212072;23;20112;-67
2022/08/26 04:19:53;;;;;;;2.55;1.27;;;22.10;75.90;;;;;;6212139;23;20011;-67
2022/08/26 04:22:19;;;;;;;3.17;1.40;;;22.10;75.80;;;;;;6210657;23;20008;-67
2022/08/26 04:24:45;;;;;;;2.50;1.30;;;22.10;75.90;;;;;;6211625;23;20032;-67
2022/08/26 04:27:11;;;;;;;2.72;1.10;;;22.10;75.80;;;;;;6225230;23;20008;-68
2022/08/26 04:29:40;;;;;;;3.00;1.23;;;22.10;75.70;;;;;;6241692;23;20004;-66
2022/08/26 04:32:07;;;;;;;3.35;1.20;;;22.10;75.60;;;;;;6242255;23;20000;-68
2022/08/26 04:34:33;;;;;;;3.50;1.08;;;22.10;75.50;;;;;;6241778;23;20024;-68
2022/08/26 04:36:58;;;;;;;3.30;1.48;;;22.10;75.40;;;;;;6242039;23;20004;-66
2022/08/26 04:39:24;;;;;;;2.20;0.90;;;22.20;75.40;;;;;;6242878;23;20000;-68
2022/08/26 04:41:51;;;;;;;2.13;1.10;;;22.10;75.20;;;;;;6244234;23;20012;-68
2022/08/26 04:44:17;;;;;;;3.65;1.25;;;22.10;75.10;;;;;;6243946;23;20004;-68
2022/08/26 04:46:43;;;;;;;3.10;1.10;;;22.10;75.10;;;;;;6243761;23;20004;-67
2022/08/26 04:49:08;;;;;;;2.20;1.10;;;22.10;75.00;;;;;;6244024;23;20023;-68
2022/08/26 04:51:35;;;;;;;5.32;1.20;;;22.10;75.10;;;;;;6243777;23;20023;-68
2022/08/26 04:54:01;;;;;;;4.32;1.20;;;22.10;75.00;;;;;;6243821;23;20047;-66
2022/08/26 04:56:31;;;;;;;3.58;1.10;;;22.10;75.00;;;;;;6243672;23;20000;-68
2022/08/26 04:58:57;;;;;;;3.85;1.30;;;22.10;75.00;;;;;;6244186;23;20583;-67
2022/08/26 05:01:22;;;;;;;3.38;1.38;;;22.10;75.00;;;;;;6244120;23;20004;-69
2022/08/26 05:03:48;;;;;;;3.40;1.10;;;22.10;74.90;;;;;;6243199;23;20075;-68
2022/08/26 05:06:14;;;;;;;2.42;1.02;;;22.10;74.80;;;;;;6243967;23;19996;-68
2022/08/26 05:08:40;;;;;;;4.20;1.13;;;22.20;74.80;;;;;;6242976;23;20010;-67
2022/08/26 05:11:06;;;;;;;3.10;0.93;;;22.10;74.70;;;;;;6243870;23;20031;-67
2022/08/26 05:13:33;;;;;;;3.55;1.30;;;22.10;74.60;;;;;;6243787;23;20445;-67
2022/08/26 05:16:08;;;;;;;3.00;1.20;;;22.20;74.60;;;;;;6242928;23;20131;-67
2022/08/26 05:18:34;;;;;;;2.17;1.10;;;22.20;74.60;;;;;;6243877;23;20000;-67
2022/08/26 05:21:01;;;;;;;3.95;1.05;;;22.20;74.60;;;;;;6243454;23;20126;-68
2022/08/26 05:23:30;;;;;;;2.92;1.15;;;22.20;74.60;;;;;;6243633;23;20008;-67
2022/08/26 05:25:55;;;;;;;2.33;0.98;;;22.20;74.50;;;;;;6242766;23;20057;-67
2022/08/26 05:28:21;;;;;;;5.25;1.23;;;22.20;74.40;;;;;;6243458;23;20371;-68
2022/08/26 05:30:48;;;;;;;3.35;1.23;;;22.20;74.30;;;;;;6243545;23;20020;-68
2022/08/26 05:33:15;;;;;;;3.80;1.30;;;22.20;74.30;;;;;;6242872;23;20334;-68
2022/08/26 05:35:42;;;;;;;1.75;1.02;;;22.20;74.30;;;;;;6242975;23;20003;-67
2022/08/26 05:38:11;;;;;;;3.03;1.00;;;22.20;74.30;;;;;;6243111;23;20015;-67
2022/08/26 05:40:40;;;;;;;3.90;0.95;;;22.30;74.40;;;;;;6243664;22;20075;-66
2022/08/26 05:43:09;;;;;;;2.10;0.82;;;22.30;74.30;;;;;;6243595;22;20011;-67
2022/08/26 05:45:37;;;;;;;3.22;0.90;;;22.30;74.20;;;;;;6242833;23;20035;-67
2022/08/26 05:48:06;;;;;;;3.00;1.10;;;22.30;74.20;;;;;;6242883;23;20079;-68
2022/08/26 05:50:37;;;;;;;3.42;1.20;;;22.40;74.10;;;;;;6242484;23;20003;-67
2022/08/26 05:53:02;;;;;;;3.90;1.30;;;22.40;73.90;;;;;;6243251;23;20370;-67
2022/08/26 05:55:28;;;;;;;2.58;0.85;;;22.50;73.90;;;;;;6242713;23;20020;-67
2022/08/26 05:57:54;;;;;;;4.65;1.08;;;22.50;73.70;;;;;;6243077;23;20333;-67
2022/08/26 06:00:20;;;;;;;2.30;1.15;;;22.60;73.50;;;;;;6242552;23;20007;-67
2022/08/26 06:02:46;;;;;;;2.38;0.90;;;22.70;73.30;;;;;;6242234;23;20523;-68
2022/08/26 06:05:11;;;;;;;3.38;1.20;;;22.90;73.00;;;;;;6243083;23;20004;-68
2022/08/26 06:10:21;;;;;;;3.03;1.02;;;23.10;72.40;;;;;;6243395;23;20016;-67
2022/08/26 06:12:47;;;;;;;4.85;1.17;;;23.10;72.10;;;;;;6242391;23;20000;-66
2022/08/26 06:15:13;;;;;;;2.75;0.90;;;23.00;72.10;;;;;;6241692;23;19996;-66
2022/08/26 06:17:39;;;;;;;4.00;0.90;;;23.10;72.20;;;;;;6242306;23;20441;-67
2022/08/26 06:20:05;;;;;;;3.35;1.30;;;23.10;72.00;;;;;;6240804;23;20000;-67
2022/08/26 06:27:59;;;;;;;2.58;1.17;;;23.00;71.80;;;;;;6243111;23;20038;-68
2022/08/26 06:30:25;;;;;;;3.00;1.30;;;23.00;71.90;;;;;;6242491;23;20376;-67
2022/08/26 06:32:51;;;;;;;2.72;1.08;;;22.90;71.90;;;;;;6242822;23;20000;-67
2022/08/26 06:35:16;;;;;;;2.95;1.00;;;23.00;71.90;;;;;;6242254;23;20475;-67
2022/08/26 06:37:42;;;;;;;4.53;1.20;;;23.10;71.70;;;;;;6243017;23;20005;-66
2022/08/26 06:40:08;;;;;;;3.35;1.10;;;23.10;71.50;;;;;;6242653;23;20341;-67
2022/08/26 06:42:34;;;;;;;2.88;0.88;;;23.20;71.30;;;;;;6242912;23;20000;-67
2022/08/26 06:45:00;;;;;;;3.92;1.20;;;23.20;71.10;;;;;;6241878;23;20004;-67
2022/08/26 06:47:25;;;;;;;4.60;1.10;;;23.30;70.70;;;;;;6240577;23;20327;-68
2022/08/26 06:49:51;;;;;;;2.08;1.02;;;23.30;70.40;;;;;;6242426;23;20003;-68
2022/08/26 06:52:16;;;;;;;2.90;1.10;;;23.30;70.20;;;;;;6241879;23;20093;-67
2022/08/26 06:54:42;;;;;;;3.05;1.30;;;23.30;70.10;;;;;;6241721;23;20000;-67
2022/08/26 06:57:11;;;;;;;3.80;1.10;;;23.40;70.10;;;;;;6242393;23;20008;-68
2022/08/26 06:59:37;;;;;;;2.00;0.90;;;23.40;70.00;;;;;;6241595;23;20015;-67
2022/08/26 07:02:04;;;;;;;4.30;1.00;;;23.40;69.80;;;;;;6242045;23;20000;-66
2022/08/26 07:04:29;;;;;;;3.80;1.00;;;23.50;69.70;;;;;;6240256;23;20031;-68
2022/08/26 07:06:55;;;;;;;3.30;1.20;;;23.50;69.40;;;;;;6241827;23;20337;-67
2022/08/26 07:09:24;;;;;;;3.05;0.93;;;23.50;69.30;;;;;;6240810;23;20000;-68
2022/08/26 07:11:51;;;;;;;2.40;0.80;;;23.60;69.10;;;;;;6241803;23;20004;-68
2022/08/26 07:14:17;;;;;;;3.63;1.02;;;23.70;68.80;;;;;;6242394;23;20089;-68
2022/08/26 07:16:43;;;;;;;2.88;1.08;;;23.70;68.60;;;;;;6242390;23;19996;-67
2022/08/26 07:19:09;;;;;;;3.05;1.00;;;23.80;68.60;;;;;;6242512;23;20004;-67
2022/08/26 07:21:35;;;;;;;2.22;0.88;;;23.90;68.30;;;;;;6242191;23;20023;-68
2022/08/26 07:24:01;;;;;;;2.15;0.90;;;23.90;68.00;;;;;;6241957;23;20024;-69
2022/08/26 07:26:29;;;;;;;2.20;0.77;;;23.90;67.70;;;;;;6240514;23;20038;-69
2022/08/26 07:28:56;;;;;;;1.77;0.90;;;23.90;67.50;;;;;;6241568;23;20004;-68
2022/08/26 07:31:23;;;;;;;3.50;0.95;;;23.90;67.50;;;;;;6241139;23;20000;-68
2022/08/26 07:33:49;;;;;;;2.33;1.15;;;23.90;67.30;;;;;;6240943;23;20003;-68
2022/08/26 07:36:17;;;;;;;3.25;0.98;;;23.90;67.20;;;;;;6242060;23;19996;-68
2022/08/26 07:38:44;;;;;;;2.42;0.90;;;23.90;67.10;;;;;;6241573;23;20031;-69
2022/08/26 07:41:12;;;;;;;2.63;0.88;;;23.90;67.10;;;;;;6240527;23;20348;-67
2022/08/26 07:43:38;;;;;;;3.63;1.30;;;23.90;67.10;;;;;;6241887;22;20102;-69
2022/08/26 07:46:05;;;;;;;3.67;0.88;;;23.90;67.00;;;;;;6241746;23;20004;-68
2022/08/26 07:48:31;;;;;;;3.55;1.08;;;24.00;67.50;;;;;;6241328;23;20054;-68
2022/08/26 07:50:57;;;;;;;2.22;0.85;;;24.10;66.70;;;;;;6241189;23;20012;-68
2022/08/26 07:53:22;;;;;;;4.50;1.10;;;24.20;66.50;;;;;;6240169;23;20010;-68
2022/08/26 07:55:48;;;;;;;1.73;0.80;;;24.20;66.10;;;;;;6240791;23;20020;-68
2022/08/26 07:58:15;;;;;;;2.25;0.80;;;24.20;66.20;;;;;;6239526;23;20027;-67
2022/08/26 08:00:41;;;;;;;4.20;1.00;;;24.10;66.00;;;;;;6240739;22;20004;-67
2022/08/26 08:03:07;;;;;;;3.15;1.10;;;24.40;65.70;;;;;;6241553;23;20103;-68
2022/08/26 08:05:35;;;;;;;2.40;0.90;;;24.40;65.50;;;;;;6241574;23;20062;-67
2022/08/26 08:08:04;;;;;;;3.80;1.25;;;24.30;65.40;;;;;;6239660;23;20004;-68
2022/08/26 08:10:30;;;;;;;4.60;1.13;;;24.40;65.40;;;;;;6241219;23;20008;-68
2022/08/26 08:12:57;;;;;;;2.83;0.70;;;24.40;65.30;;;;;;6240334;23;20388;-68
2022/08/26 08:15:26;;;;;;;1.92;0.88;;;24.60;64.90;;;;;;6240624;23;20484;-68
2022/08/26 08:17:51;;;;;;;1.52;0.70;;;24.60;64.80;;;;;;6240314;23;20028;-68
2022/08/26 08:20:18;;;;;;;2.60;1.02;;;24.60;64.80;;;;;;6240271;23;20011;-67
2022/08/26 08:22:43;;;;;;;4.63;1.23;;;24.60;64.90;;;;;;6240711;23;20492;-67
2022/08/26 08:25:10;;;;;;;4.10;1.13;;;24.50;65.00;;;;;;6239827;23;20054;-66
2022/08/26 08:27:37;;;;;;;3.50;1.10;;;24.30;65.10;;;;;;6241367;23;20039;-68
2022/08/26 08:30:03;;;;;;;3.53;1.13;;;24.20;65.40;;;;;;6241808;23;20000;-68
2022/08/26 08:32:29;;;;;;;4.80;1.45;;;24.20;65.60;;;;;;6241216;23;19997;-66
2022/08/26 08:34:56;;;;;;;1.88;0.80;;;24.20;65.80;;;;;;6241170;23;20007;-68
2022/08/26 08:37:22;;;;;;;2.75;1.10;;;24.10;65.80;;;;;;6241245;23;20426;-68
2022/08/26 08:39:48;;;;;;;4.15;1.33;;;24.10;66.00;;;;;;6241283;23;20000;-67
2022/08/26 08:42:37;;;;;;;4.53;1.27;;;24.00;66.30;;;;;;6241537;23;20337;-66
2022/08/26 08:45:09;;;;;;;1.95;0.85;;;24.00;66.40;;;;;;6241242;23;20008;-67
2022/08/26 08:47:40;;;;;;;;;;;23.90;66.50;;;;;;6242294;23;20004;-68
2022/08/26 08:50:19;;;;;;;4.25;0.90;;;23.90;66.50;;;;;;6241894;22;19903;-67
2022/08/26 08:52:53;;;;;;;3.25;0.95;;;23.90;66.70;;;;;;6241510;23;20003;-68
2022/08/26 08:55:18;;;;;;;2.80;0.90;;;23.90;66.70;;;;;;6241520;23;20417;-67
2022/08/26 08:58:08;;;;;;;3.10;1.10;;;23.90;66.70;;;;;;6241125;23;20032;-66
2022/08/26 09:00:58;;;;;;;4.65;1.00;;;24.00;66.70;;;;;;6241569;23;20011;-68
2022/08/26 09:03:31;;;;;;;2.50;0.90;;;24.00;66.50;;;;;;6241308;22;20007;-66
2022/08/26 09:06:00;;;;;;;3.67;1.00;;;24.10;66.50;;;;;;6241193;23;20433;-68
2022/08/26 09:08:31;;;;;;;4.30;1.10;;;24.10;66.50;;;;;;6241515;23;20012;-67
2022/08/26 09:10:59;;;;;;;3.20;0.87;;;24.10;66.60;;;;;;6241371;23;20476;-67
2022/08/26 09:13:25;;;;;;;2.10;0.85;;;24.20;66.60;;;;;;6241723;22;20075;-67
2022/08/26 09:16:12;;;;;;;2.72;0.70;;;24.20;66.50;;;;;;6240886;23;20035;-68
2022/08/26 09:18:38;;;;;;;3.65;0.90;;;24.30;66.60;;;;;;6240901;23;20040;-67
2022/08/26 09:21:07;;;;;;;3.40;1.13;;;24.30;66.50;;;;;;6241340;23;20096;-68
2022/08/26 09:23:35;;;;;;;3.60;1.10;;;24.20;66.60;;;;;;6239436;23;20039;-69
2022/08/26 09:26:25;;;;;;;4.15;1.27;;;24.20;66.80;;;;;;6242921;23;20535;-66
2022/08/26 09:29:03;;;;;;;4.43;1.30;;;24.20;66.90;;;;;;6211653;23;20080;-70
2022/08/26 09:31:31;;;;;;;3.38;1.00;;;24.20;67.00;;;;;;6211449;23;20009;-70
2022/08/26 09:34:16;;;;;;;4.88;1.20;;;24.20;67.00;;;;;;6211871;23;20004;-68
2022/08/26 09:36:43;;;;;;;3.35;1.00;;;24.10;67.20;;;;;;6211151;23;20338;-68
2022/08/26 09:39:27;;;;;;;2.50;0.80;;;24.00;67.30;;;;;;6211756;23;20031;-70
2022/08/26 09:42:10;;;;;;;3.28;0.98;;;24.00;67.50;;;;;;6211694;23;20005;-68
2022/08/26 09:44:56;;;;;;;1.60;0.70;;;24.10;67.50;;;;;;6211790;23;20008;-68
2022/08/26 09:47:24;;;;;;;2.35;1.00;;;24.10;67.50;;;;;;6184996;23;20429;-68
2022/08/26 09:50:18;;;;;;;3.38;1.00;;;24.10;67.50;;;;;;6211027;23;20683;-68
2022/08/26 09:52:44;;;;;;;3.10;1.20;;;24.20;67.20;;;;;;6196983;23;20001;-68
2022/08/26 09:55:21;;;;;;;2.75;1.00;;;24.10;66.80;;;;;;6210365;23;20030;-67
2022/08/26 09:57:52;;;;;;;3.50;1.10;;;24.10;66.80;;;;;;6210925;23;20013;-68
2022/08/26 10:00:37;;;;;;;3.78;1.25;;;24.10;66.70;;;;;;6210620;23;20072;-67
2022/08/26 10:03:07;;;;;;;3.67;1.25;;;24.00;66.70;;;;;;6210301;23;20000;-66
2022/08/26 10:05:39;;;;;;;3.40;1.20;;;24.00;66.60;;;;;;6210681;23;20054;-69
2022/08/26 10:08:14;;;;;;;3.38;0.93;;;24.00;66.50;;;;;;6210600;23;20008;-67
2022/08/26 10:10:44;;;;;;;3.13;1.00;;;24.00;66.40;;;;;;6209651;23;19996;-66
2022/08/26 10:13:25;;;;;;;1.88;0.85;;;24.00;66.30;;;;;;6184385;23;20025;-68
2022/08/26 10:16:14;;;;;;;3.63;1.05;;;24.00;66.20;;;;;;6210468;23;20005;-67
2022/08/26 10:19:12;;;;;;;3.25;1.02;;;24.00;66.30;;;;;;6210991;23;20445;-68
2022/08/26 10:21:54;;;;;;;3.50;1.17;;;24.00;66.40;;;;;;6195971;23;20020;-67
2022/08/26 10:24:37;;;;;;;4.25;1.20;;;23.90;66.50;;;;;;6210758;23;20012;-67
2022/08/26 10:27:33;;;;;;;4.47;1.05;;;23.90;66.50;;;;;;6222921;23;20008;-67
2022/08/26 10:30:09;;;;;;;3.20;1.20;;;24.00;66.40;;;;;;6240779;23;20015;-67
2022/08/26 10:32:47;;;;;;;3.95;1.10;;;24.10;65.90;;;;;;6237965;23;20341;-66
2022/08/26 10:35:15;;;;;;;2.70;0.90;;;24.10;65.70;;;;;;6240875;23;20057;-66
2022/08/26 10:38:00;;;;;;;2.80;0.80;;;24.10;65.40;;;;;;6238271;23;20000;-68
2022/08/26 10:40:37;;;;;;;3.25;0.93;;;24.20;65.20;;;;;;6240444;23;20011;-68
2022/08/26 10:43:17;;;;;;;3.88;1.00;;;24.20;64.80;;;;;;6239118;23;20004;-67
2022/08/26 10:45:50;;;;;;;4.05;1.35;;;24.30;64.60;;;;;;6240525;23;20007;-68
2022/08/26 10:48:21;;;;;;;2.83;0.77;;;24.30;64.40;;;;;;6238527;23;20006;-66
2022/08/26 10:50:47;;;;;;;3.50;0.95;;;24.50;64.20;;;;;;6239585;23;20019;-67
2022/08/26 10:53:18;;;;;;;1.92;0.80;;;24.40;63.70;;;;;;6240757;23;20004;-67
2022/08/26 10:56:09;;;;;;;3.35;1.10;;;24.40;63.90;;;;;;6241177;23;20225;-67
2022/08/26 10:59:00;;;;;;;2.50;0.82;;;24.40;63.70;;;;;;6239589;23;20055;-68
2022/08/26 11:01:47;;;;;;;2.03;0.93;;;24.40;63.60;;;;;;6240256;23;20000;-68
2022/08/26 11:04:31;;;;;;;1.63;0.80;;;24.50;63.40;;;;;;6241907;23;19996;-67
2022/08/26 11:07:29;;;;;;;3.80;1.10;;;24.40;63.40;;;;;;6241095;23;20011;-68
2022/08/26 11:09:59;;;;;;;1.88;0.75;;;24.40;63.50;;;;;;6240634;23;20460;-67
2022/08/26 11:12:33;;;;;;;1.83;0.75;;;24.30;63.70;;;;;;6240039;23;20000;-66
2022/08/26 11:15:07;;;;;;;4.22;0.80;;;24.30;63.80;;;;;;6240407;23;20421;-67
2022/08/26 11:17:45;;;;;;;4.15;1.10;;;24.20;63.80;;;;;;6239177;23;20075;-67
2022/08/26 11:20:32;;;;;;;2.55;0.80;;;24.20;64.20;;;;;;6240635;23;20026;-67
2022/08/26 11:23:15;;;;;;;2.80;1.02;;;24.10;64.20;;;;;;6239804;23;20368;-67
2022/08/26 11:26:05;;;;;;;1.65;0.60;;;24.10;64.60;;;;;;6239879;23;20011;-67
2022/08/26 11:28:38;;;;;;;3.22;0.80;;;24.00;65.10;;;;;;6239711;23;20034;-68
2022/08/26 11:31:09;;;;;;;1.52;0.80;;;24.00;65.40;;;;;;6238659;23;20079;-68
2022/08/26 11:33:57;;;;;;;2.47;0.80;;;23.90;65.90;;;;;;6241025;23;20055;-67
2022/08/26 11:36:38;;;;;;;2.92;0.90;;;23.80;66.20;;;;;;6241128;22;20004;-68
2022/08/26 11:39:18;;;;;;;1.67;0.70;;;23.70;66.50;;;;;;6241470;23;20000;-68
2022/08/26 11:41:47;;;;;;;2.45;0.85;;;23.60;66.80;;;;;;6239150;23;20028;-68
2022/08/26 11:44:19;;;;;;;2.42;0.70;;;23.60;67.00;;;;;;6240891;23;19996;-68
2022/08/26 11:46:52;;;;;;;1.42;0.88;;;23.60;67.30;;;;;;6240854;23;20004;-68
2022/08/26 11:49:18;;;;;;;3.17;0.70;;;23.50;67.20;;;;;;6241085;23;20007;-69
2022/08/26 11:51:44;;;;;;;2.15;0.75;;;23.60;67.30;;;;;;6239894;23;19996;-68
2022/08/26 11:54:17;;;;;;;1.65;0.80;;;23.50;67.30;;;;;;6240391;23;20000;-68
2022/08/26 11:56:46;;;;;;;2.40;0.70;;;23.50;67.40;;;;;;6239939;23;20051;-69
2022/08/26 11:59:17;;;;;;;1.33;0.60;;;23.50;67.40;;;;;;6240613;23;20049;-67
2022/08/26 12:01:47;;;;;;;1.88;0.80;;;23.40;67.40;;;;;;6238934;22;20047;-69
2022/08/26 12:04:36;;;;;;;2.05;0.88;;;23.50;67.40;;;;;;6240631;23;19997;-67
2022/08/26 12:07:04;;;;;;;2.05;0.70;;;23.40;67.20;;;;;;6239985;23;20645;-67
2022/08/26 12:09:35;;;;;;;1.40;0.70;;;23.40;67.10;;;;;;6240289;23;20000;-68
2022/08/26 12:12:13;;;;;;;2.70;0.80;;;23.40;67.10;;;;;;6239758;23;19996;-68
2022/08/26 12:14:39;;;;;;;2.03;0.73;;;23.40;66.90;;;;;;6240207;22;20060;-68
2022/08/26 12:17:09;;;;;;;1.55;0.70;;;23.40;66.70;;;;;;6238487;23;20457;-68
2022/08/26 12:19:35;;;;;;;3.45;0.85;;;23.40;66.50;;;;;;6238301;23;20314;-69
2022/08/26 12:22:16;;;;;;;2.08;0.60;;;23.40;66.70;;;;;;6238733;23;20030;-68
2022/08/26 12:24:51;;;;;;;1.60;0.70;;;23.40;66.80;;;;;;6239293;23;20444;-68
2022/08/26 12:27:21;;;;;;;2.28;0.82;;;23.40;66.70;;;;;;6239498;23;20012;-68
2022/08/26 12:30:05;;;;;;;1.85;0.50;;;23.40;66.80;;;;;;6240461;23;20083;-69
2022/08/26 12:32:31;;;;;;;1.35;0.70;;;23.30;66.80;;;;;;6236547;23;20001;-69
2022/08/26 12:35:01;;;;;;;2.45;0.82;;;23.30;66.90;;;;;;6240324;23;20333;-69
2022/08/26 12:37:28;;;;;;;1.73;0.70;;;23.30;67.10;;;;;;6240108;22;20018;-69
2022/08/26 12:39:54;;;;;;;2.47;0.60;;;23.20;67.00;;;;;;6240467;23;20031;-69
2022/08/26 12:42:21;;;;;;;1.48;0.60;;;23.30;66.90;;;;;;6238817;23;20008;-69
2022/08/26 12:44:59;;;;;;;1.95;0.60;;;23.30;66.80;;;;;;6240407;23;20074;-68
2022/08/26 12:47:32;;;;;;;2.65;0.70;;;23.30;66.60;;;;;;6237885;23;20341;-69
2022/08/26 12:50:17;;;;;;;1.85;0.60;;;23.40;66.50;;;;;;6238846;23;20452;-69
2022/08/26 12:52:56;;;;;;;3.35;0.80;;;23.50;66.30;;;;;;6239186;23;20417;-69
2022/08/26 12:55:31;;;;;;;1.77;0.68;;;23.50;66.10;;;;;;6238290;23;20003;-68
2022/08/26 12:58:15;;;;;;;1.33;0.50;;;23.50;66.60;;;;;;6238081;23;20004;-69
2022/08/26 13:00:45;;;;;;;2.88;1.17;;;23.60;65.90;;;;;;6238133;23;20019;-68
2022/08/26 13:03:32;;;;;;;1.75;0.70;;;23.50;65.80;;;;;;6240435;23;20008;-69
2022/08/26 13:06:20;;;;;;;3.22;0.70;;;23.50;65.80;;;;;;6236583;23;20008;-68
2022/08/26 13:09:06;;;;;;;3.38;0.70;;;23.60;65.80;;;;;;6238430;23;20388;-68
2022/08/26 13:11:38;;;;;;;2.10;0.70;;;23.50;65.50;;;;;;6221880;23;20028;-67